sensor_id;sensor_type;location;lat;lon;timestamp;P1;P2;P0
66195;PMS7003;53000;45.182;5.736;2023-07-13T00:00:27;4.67;4.67;4.33
66195;PMS7003;53000;45.182;5.736;2023-07-13T00:02:53;5.00;5.00;5.00
66195;PMS7003;53000;45.182;5.736;2023-07-13T00:05:22;4.00;4.00;3.33
66195;PMS7003;53000;45.182;5.736;2023-07-13T00:07:49;3.00;2.33;2.33
66195;PMS7003;53000;45.182;5.736;2023-07-13T00:10:15;5.67;5.67;4.00
66195;PMS7003;53000;45.182;5.736;2023-07-13T00:12:41;5.67;5.00;4.00
66195;PMS7003;53000;45.182;5.736;2023-07-13T00:15:10;6.00;5.00;4.00
66195;PMS7003;53000;45.182;5.736;2023-07-13T00:17:41;5.67;5.33;4.67
66195;PMS7003;53000;45.182;5.736;2023-07-13T00:20:09;10.00;8.00;7.00
66195;PMS7003;53000;45.182;5.736;2023-07-13T00:22:36;11.00;9.50;7.25
66195;PMS7003;53000;45.182;5.736;2023-07-13T00:25:01;10.50;10.00;7.50
66195;PMS7003;53000;45.182;5.736;2023-07-13T00:27:26;12.00;12.00;9.00
66195;PMS7003;53000;45.182;5.736;2023-07-13T00:29:52;8.00;7.25;6.50
66195;PMS7003;53000;45.182;5.736;2023-07-13T00:32:17;9.25;8.00;6.00
66195;PMS7003;53000;45.182;5.736;2023-07-13T00:34:43;4.75;4.75;3.75
66195;PMS7003;53000;45.182;5.736;2023-07-13T00:37:09;8.75;7.75;6.50
66195;PMS7003;53000;45.182;5.736;2023-07-13T00:39:34;10.75;10.75;8.75
66195;PMS7003;53000;45.182;5.736;2023-07-13T00:42:00;11.00;11.00;9.00
66195;PMS7003;53000;45.182;5.736;2023-07-13T00:44:27;9.75;9.25;8.00
66195;PMS7003;53000;45.182;5.736;2023-07-13T00:46:52;11.25;11.25;8.25
66195;PMS7003;53000;45.182;5.736;2023-07-13T00:49:19;8.50;8.00;6.25
66195;PMS7003;53000;45.182;5.736;2023-07-13T00:54:16;9.25;9.25;7.00
66195;PMS7003;53000;45.182;5.736;2023-07-13T00:56:44;11.75;10.00;8.00
66195;PMS7003;53000;45.182;5.736;2023-07-13T00:59:11;11.00;9.25;7.25
66195;PMS7003;53000;45.182;5.736;2023-07-13T01:01:40;11.25;10.00;8.00
66195;PMS7003;53000;45.182;5.736;2023-07-13T01:04:05;11.25;9.50;7.50
66195;PMS7003;53000;45.182;5.736;2023-07-13T01:06:33;13.00;11.00;9.00
66195;PMS7003;53000;45.182;5.736;2023-07-13T01:09:00;11.00;10.25;7.00
66195;PMS7003;53000;45.182;5.736;2023-07-13T01:11:27;10.25;8.25;7.25
66195;PMS7003;53000;45.182;5.736;2023-07-13T01:13:52;8.50;7.75;7.00
66195;PMS7003;53000;45.182;5.736;2023-07-13T01:16:24;8.00;7.50;6.50
66195;PMS7003;53000;45.182;5.736;2023-07-13T01:18:51;12.75;10.75;8.00
66195;PMS7003;53000;45.182;5.736;2023-07-13T01:21:16;6.75;5.50;5.00
66195;PMS7003;53000;45.182;5.736;2023-07-13T01:23:43;9.75;9.50;6.50
66195;PMS7003;53000;45.182;5.736;2023-07-13T01:26:09;10.25;10.00;8.25
66195;PMS7003;53000;45.182;5.736;2023-07-13T01:28:36;12.00;11.00;8.75
66195;PMS7003;53000;45.182;5.736;2023-07-13T01:31:02;11.25;9.50;7.75
66195;PMS7003;53000;45.182;5.736;2023-07-13T01:33:28;7.50;7.50;6.25
66195;PMS7003;53000;45.182;5.736;2023-07-13T01:35:54;5.67;5.33;5.00
66195;PMS7003;53000;45.182;5.736;2023-07-13T01:38:23;5.00;5.00;4.00
66195;PMS7003;53000;45.182;5.736;2023-07-13T01:40:49;3.33;3.33;3.33
66195;PMS7003;53000;45.182;5.736;2023-07-13T01:43:16;2.00;2.00;2.00
66195;PMS7003;53000;45.182;5.736;2023-07-13T01:45:41;4.00;4.00;3.00
66195;PMS7003;53000;45.182;5.736;2023-07-13T01:48:08;3.00;3.00;2.00
66195;PMS7003;53000;45.182;5.736;2023-07-13T01:50:34;3.00;2.33;2.00
66195;PMS7003;53000;45.182;5.736;2023-07-13T01:53:00;3.00;2.33;2.00
66195;PMS7003;53000;45.182;5.736;2023-07-13T01:55:27;2.33;2.33;2.33
66195;PMS7003;53000;45.182;5.736;2023-07-13T01:57:52;1.00;1.00;1.00
66195;PMS7003;53000;45.182;5.736;2023-07-13T02:00:18;1.67;1.67;1.33
66195;PMS7003;53000;45.182;5.736;2023-07-13T02:02:43;3.00;2.00;2.00
66195;PMS7003;53000;45.182;5.736;2023-07-13T02:05:09;2.00;2.00;2.00
66195;PMS7003;53000;45.182;5.736;2023-07-13T02:07:35;3.00;2.00;2.00
66195;PMS7003;53000;45.182;5.736;2023-07-13T02:10:00;2.00;2.00;1.67
66195;PMS7003;53000;45.182;5.736;2023-07-13T02:12:26;2.00;2.00;2.00
66195;PMS7003;53000;45.182;5.736;2023-07-13T02:14:51;2.00;2.00;2.00
66195;PMS7003;53000;45.182;5.736;2023-07-13T02:17:16;2.00;2.00;1.33
66195;PMS7003;53000;45.182;5.736;2023-07-13T02:19:42;2.00;2.00;1.33
66195;PMS7003;53000;45.182;5.736;2023-07-13T02:22:07;3.00;3.00;2.00
66195;PMS7003;53000;45.182;5.736;2023-07-13T02:24:32;3.00;2.33;1.33
66195;PMS7003;53000;45.182;5.736;2023-07-13T02:26:58;2.00;2.00;2.00
66195;PMS7003;53000;45.182;5.736;2023-07-13T02:29:23;1.33;1.33;0.33
66195;PMS7003;53000;45.182;5.736;2023-07-13T02:31:49;2.33;1.00;1.00
66195;PMS7003;53000;45.182;5.736;2023-07-13T02:34:14;2.33;1.00;1.00
66195;PMS7003;53000;45.182;5.736;2023-07-13T02:36:39;1.00;1.00;1.00
66195;PMS7003;53000;45.182;5.736;2023-07-13T02:39:05;2.67;2.00;1.67
66195;PMS7003;53000;45.182;5.736;2023-07-13T02:41:31;1.67;1.00;1.00
66195;PMS7003;53000;45.182;5.736;2023-07-13T02:43:57;4.00;2.00;2.00
66195;PMS7003;53000;45.182;5.736;2023-07-13T02:46:28;3.33;2.67;2.00
66195;PMS7003;53000;45.182;5.736;2023-07-13T02:48:54;2.67;2.00;2.00
66195;PMS7003;53000;45.182;5.736;2023-07-13T02:51:19;1.33;1.00;1.00
66195;PMS7003;53000;45.182;5.736;2023-07-13T02:53:44;0.33;0.33;0.33
66195;PMS7003;53000;45.182;5.736;2023-07-13T02:56:10;1.00;1.00;0.33
66195;PMS7003;53000;45.182;5.736;2023-07-13T02:58:35;0.33;0.33;0.33
66195;PMS7003;53000;45.182;5.736;2023-07-13T03:01:05;1.00;1.00;0.67
66195;PMS7003;53000;45.182;5.736;2023-07-13T03:03:32;1.33;1.00;1.00
66195;PMS7003;53000;45.182;5.736;2023-07-13T03:05:59;1.00;0.00;0.00
66195;PMS7003;53000;45.182;5.736;2023-07-13T03:08:27;0.33;0.33;0.33
66195;PMS7003;53000;45.182;5.736;2023-07-13T03:10:59;0.00;0.00;0.00
66195;PMS7003;53000;45.182;5.736;2023-07-13T03:13:26;1.00;1.00;1.00
66195;PMS7003;53000;45.182;5.736;2023-07-13T03:15:51;1.00;1.00;1.00
66195;PMS7003;53000;45.182;5.736;2023-07-13T03:18:16;1.00;1.00;0.67
66195;PMS7003;53000;45.182;5.736;2023-07-13T03:20:42;1.00;1.00;1.00
66195;PMS7003;53000;45.182;5.736;2023-07-13T03:23:07;2.00;1.67;1.00
66195;PMS7003;53000;45.182;5.736;2023-07-13T03:25:32;2.00;2.00;1.00
66195;PMS7003;53000;45.182;5.736;2023-07-13T03:27:57;2.00;1.00;1.00
66195;PMS7003;53000;45.182;5.736;2023-07-13T03:30:23;1.00;1.00;1.00
66195;PMS7003;53000;45.182;5.736;2023-07-13T03:32:48;0.33;0.33;0.33
66195;PMS7003;53000;45.182;5.736;2023-07-13T03:35:14;2.33;1.00;1.00
66195;PMS7003;53000;45.182;5.736;2023-07-13T03:37:39;1.00;1.00;1.00
66195;PMS7003;53000;45.182;5.736;2023-07-13T03:40:07;1.67;1.67;1.67
66195;PMS7003;53000;45.182;5.736;2023-07-13T03:42:34;1.00;1.00;1.00
66195;PMS7003;53000;45.182;5.736;2023-07-13T03:44:59;1.00;1.00;1.00
66195;PMS7003;53000;45.182;5.736;2023-07-13T03:47:25;1.00;1.00;1.00
66195;PMS7003;53000;45.182;5.736;2023-07-13T03:49:50;1.00;1.00;1.00
66195;PMS7003;53000;45.182;5.736;2023-07-13T03:52:15;1.00;1.00;1.00
66195;PMS7003;53000;45.182;5.736;2023-07-13T03:54:41;2.00;2.00;1.00
66195;PMS7003;53000;45.182;5.736;2023-07-13T03:57:06;0.33;0.33;0.00
66195;PMS7003;53000;45.182;5.736;2023-07-13T03:59:34;2.00;1.67;1.00
66195;PMS7003;53000;45.182;5.736;2023-07-13T04:02:00;1.00;1.00;1.00
66195;PMS7003;53000;45.182;5.736;2023-07-13T04:04:25;1.67;0.33;0.33
66195;PMS7003;53000;45.182;5.736;2023-07-13T04:06:51;1.00;1.00;1.00
66195;PMS7003;53000;45.182;5.736;2023-07-13T04:09:18;0.33;0.33;0.33
66195;PMS7003;53000;45.182;5.736;2023-07-13T04:11:44;1.00;1.00;1.00
66195;PMS7003;53000;45.182;5.736;2023-07-13T04:14:09;1.00;1.00;1.00
66195;PMS7003;53000;45.182;5.736;2023-07-13T04:16:35;0.33;0.33;0.33
66195;PMS7003;53000;45.182;5.736;2023-07-13T04:19:00;0.00;0.00;0.00
66195;PMS7003;53000;45.182;5.736;2023-07-13T04:21:26;1.67;1.67;1.00
66195;PMS7003;53000;45.182;5.736;2023-07-13T04:23:52;1.00;1.00;0.67
66195;PMS7003;53000;45.182;5.736;2023-07-13T04:26:18;0.00;0.00;0.00
66195;PMS7003;53000;45.182;5.736;2023-07-13T04:28:46;1.00;0.00;0.00
66195;PMS7003;53000;45.182;5.736;2023-07-13T04:31:11;0.00;0.00;0.00
66195;PMS7003;53000;45.182;5.736;2023-07-13T04:33:37;4.00;4.00;3.00
66195;PMS7003;53000;45.182;5.736;2023-07-13T04:36:03;1.67;1.00;1.00
66195;PMS7003;53000;45.182;5.736;2023-07-13T04:38:30;1.00;1.00;0.33
66195;PMS7003;53000;45.182;5.736;2023-07-13T04:40:57;1.00;1.00;1.00
66195;PMS7003;53000;45.182;5.736;2023-07-13T04:43:25;0.33;0.33;0.33
66195;PMS7003;53000;45.182;5.736;2023-07-13T04:45:51;0.33;0.33;0.00
66195;PMS7003;53000;45.182;5.736;2023-07-13T04:48:17;0.67;0.67;0.33
66195;PMS7003;53000;45.182;5.736;2023-07-13T04:50:46;1.00;1.00;1.00
66195;PMS7003;53000;45.182;5.736;2023-07-13T04:53:12;1.67;1.33;1.00
66195;PMS7003;53000;45.182;5.736;2023-07-13T04:55:38;3.33;1.00;1.00
66195;PMS7003;53000;45.182;5.736;2023-07-13T04:58:03;1.00;1.00;0.33
66195;PMS7003;53000;45.182;5.736;2023-07-13T05:00:30;2.00;1.00;1.00
66195;PMS7003;53000;45.182;5.736;2023-07-13T05:02:56;1.00;1.00;1.00
66195;PMS7003;53000;45.182;5.736;2023-07-13T05:05:23;1.67;1.00;1.00
66195;PMS7003;53000;45.182;5.736;2023-07-13T05:07:50;1.33;1.00;1.00
66195;PMS7003;53000;45.182;5.736;2023-07-13T05:10:15;2.00;0.00;0.00
66195;PMS7003;53000;45.182;5.736;2023-07-13T05:12:41;1.00;1.00;1.00
66195;PMS7003;53000;45.182;5.736;2023-07-13T05:15:06;2.00;1.00;1.00
66195;PMS7003;53000;45.182;5.736;2023-07-13T05:17:32;3.00;1.00;1.00
66195;PMS7003;53000;45.182;5.736;2023-07-13T05:19:58;0.00;0.00;0.00
66195;PMS7003;53000;45.182;5.736;2023-07-13T05:22:23;1.00;1.00;1.00
66195;PMS7003;53000;45.182;5.736;2023-07-13T05:24:48;0.00;0.00;0.00
66195;PMS7003;53000;45.182;5.736;2023-07-13T05:27:14;0.00;0.00;0.00
66195;PMS7003;53000;45.182;5.736;2023-07-13T05:29:39;0.00;0.00;0.00
66195;PMS7003;53000;45.182;5.736;2023-07-13T05:32:04;2.00;1.00;0.00
66195;PMS7003;53000;45.182;5.736;2023-07-13T05:34:30;1.00;1.00;1.00
66195;PMS7003;53000;45.182;5.736;2023-07-13T05:36:55;1.00;1.00;1.00
66195;PMS7003;53000;45.182;5.736;2023-07-13T05:39:21;1.00;1.00;1.00
66195;PMS7003;53000;45.182;5.736;2023-07-13T05:41:47;1.00;1.00;0.67
66195;PMS7003;53000;45.182;5.736;2023-07-13T05:44:12;0.00;0.00;0.00
66195;PMS7003;53000;45.182;5.736;2023-07-13T05:46:37;1.33;1.33;1.00
66195;PMS7003;53000;45.182;5.736;2023-07-13T05:49:03;0.67;0.67;0.33
66195;PMS7003;53000;45.182;5.736;2023-07-13T05:51:28;0.00;0.00;0.00
66195;PMS7003;53000;45.182;5.736;2023-07-13T05:53:54;0.33;0.00;0.00
66195;PMS7003;53000;45.182;5.736;2023-07-13T05:56:19;1.00;1.00;1.00
66195;PMS7003;53000;45.182;5.736;2023-07-13T05:58:45;0.67;0.67;0.67
66195;PMS7003;53000;45.182;5.736;2023-07-13T06:01:11;1.00;1.00;0.67
66195;PMS7003;53000;45.182;5.736;2023-07-13T06:03:39;1.00;1.00;1.00
66195;PMS7003;53000;45.182;5.736;2023-07-13T06:06:05;1.00;1.00;0.67
66195;PMS7003;53000;45.182;5.736;2023-07-13T06:08:32;1.00;1.00;1.00
66195;PMS7003;53000;45.182;5.736;2023-07-13T06:11:04;0.33;0.00;0.00
66195;PMS7003;53000;45.182;5.736;2023-07-13T06:13:32;1.00;0.67;0.00
66195;PMS7003;53000;45.182;5.736;2023-07-13T06:15:58;1.00;1.00;1.00
66195;PMS7003;53000;45.182;5.736;2023-07-13T06:18:23;1.00;1.00;1.00
66195;PMS7003;53000;45.182;5.736;2023-07-13T06:20:49;1.00;1.00;1.00
66195;PMS7003;53000;45.182;5.736;2023-07-13T06:23:14;1.00;1.00;1.00
66195;PMS7003;53000;45.182;5.736;2023-07-13T06:25:40;0.00;0.00;0.00
66195;PMS7003;53000;45.182;5.736;2023-07-13T06:28:05;0.33;0.00;0.00
66195;PMS7003;53000;45.182;5.736;2023-07-13T06:30:31;1.00;1.00;1.00
66195;PMS7003;53000;45.182;5.736;2023-07-13T06:32:56;2.00;2.00;2.00
66195;PMS7003;53000;45.182;5.736;2023-07-13T06:35:22;2.67;1.00;1.00
66195;PMS7003;53000;45.182;5.736;2023-07-13T06:37:47;2.00;2.00;1.00
66195;PMS7003;53000;45.182;5.736;2023-07-13T06:40:12;0.00;0.00;0.00
66195;PMS7003;53000;45.182;5.736;2023-07-13T06:42:38;3.00;1.33;1.00
66195;PMS7003;53000;45.182;5.736;2023-07-13T06:45:03;1.00;1.00;0.33
66195;PMS7003;53000;45.182;5.736;2023-07-13T06:47:29;2.00;1.00;1.00
66195;PMS7003;53000;45.182;5.736;2023-07-13T06:49:55;0.33;0.33;0.00
66195;PMS7003;53000;45.182;5.736;2023-07-13T06:52:20;1.00;0.33;0.33
66195;PMS7003;53000;45.182;5.736;2023-07-13T06:54:46;0.00;0.00;0.00
66195;PMS7003;53000;45.182;5.736;2023-07-13T06:57:11;0.67;0.67;0.67
66195;PMS7003;53000;45.182;5.736;2023-07-13T06:59:36;2.00;1.00;1.00
66195;PMS7003;53000;45.182;5.736;2023-07-13T07:02:02;1.00;1.00;1.00
66195;PMS7003;53000;45.182;5.736;2023-07-13T07:04:28;0.33;0.33;0.33
66195;PMS7003;53000;45.182;5.736;2023-07-13T07:06:54;0.67;0.67;0.67
66195;PMS7003;53000;45.182;5.736;2023-07-13T07:09:19;0.33;0.33;0.33
66195;PMS7003;53000;45.182;5.736;2023-07-13T07:11:44;1.00;1.00;1.00
66195;PMS7003;53000;45.182;5.736;2023-07-13T07:14:10;1.67;1.00;1.00
66195;PMS7003;53000;45.182;5.736;2023-07-13T07:16:35;1.33;1.33;1.00
66195;PMS7003;53000;45.182;5.736;2023-07-13T07:19:00;0.00;0.00;0.00
66195;PMS7003;53000;45.182;5.736;2023-07-13T07:21:26;0.00;0.00;0.00
66195;PMS7003;53000;45.182;5.736;2023-07-13T07:23:52;1.33;0.67;0.67
66195;PMS7003;53000;45.182;5.736;2023-07-13T07:26:17;0.67;0.67;0.00
66195;PMS7003;53000;45.182;5.736;2023-07-13T07:28:43;0.33;0.33;0.00
66195;PMS7003;53000;45.182;5.736;2023-07-13T07:31:08;1.00;1.00;1.00
66195;PMS7003;53000;45.182;5.736;2023-07-13T07:33:34;0.00;0.00;0.00
66195;PMS7003;53000;45.182;5.736;2023-07-13T07:35:59;2.00;1.00;1.00
66195;PMS7003;53000;45.182;5.736;2023-07-13T07:38:25;2.67;1.00;1.00
66195;PMS7003;53000;45.182;5.736;2023-07-13T07:40:50;1.00;1.00;1.00
66195;PMS7003;53000;45.182;5.736;2023-07-13T07:43:16;1.67;1.33;1.00
66195;PMS7003;53000;45.182;5.736;2023-07-13T07:45:41;1.00;1.00;1.00
66195;PMS7003;53000;45.182;5.736;2023-07-13T07:48:09;0.00;0.00;0.00
66195;PMS7003;53000;45.182;5.736;2023-07-13T07:50:34;1.00;1.00;1.00
66195;PMS7003;53000;45.182;5.736;2023-07-13T07:53:00;0.67;0.00;0.00
66195;PMS7003;53000;45.182;5.736;2023-07-13T07:55:27;0.33;0.33;0.00
66195;PMS7003;53000;45.182;5.736;2023-07-13T07:57:52;1.33;1.00;0.33
66195;PMS7003;53000;45.182;5.736;2023-07-13T08:00:18;0.33;0.33;0.33
66195;PMS7003;53000;45.182;5.736;2023-07-13T08:02:44;2.00;0.33;0.00
66195;PMS7003;53000;45.182;5.736;2023-07-13T08:05:10;0.33;0.33;0.00
66195;PMS7003;53000;45.182;5.736;2023-07-13T08:07:36;0.00;0.00;0.00
66195;PMS7003;53000;45.182;5.736;2023-07-13T08:10:04;0.00;0.00;0.00
66195;PMS7003;53000;45.182;5.736;2023-07-13T08:12:30;0.00;0.00;0.00
66195;PMS7003;53000;45.182;5.736;2023-07-13T08:14:59;0.00;0.00;0.00
66195;PMS7003;53000;45.182;5.736;2023-07-13T08:17:25;1.67;0.33;0.33
66195;PMS7003;53000;45.182;5.736;2023-07-13T08:19:51;0.67;0.00;0.00
66195;PMS7003;53000;45.182;5.736;2023-07-13T08:22:17;1.00;0.00;0.00
66195;PMS7003;53000;45.182;5.736;2023-07-13T08:24:42;0.67;0.00;0.00
66195;PMS7003;53000;45.182;5.736;2023-07-13T08:27:08;0.00;0.00;0.00
66195;PMS7003;53000;45.182;5.736;2023-07-13T08:29:36;0.00;0.00;0.00
66195;PMS7003;53000;45.182;5.736;2023-07-13T08:32:02;0.00;0.00;0.00
66195;PMS7003;53000;45.182;5.736;2023-07-13T08:34:27;0.00;0.00;0.00
66195;PMS7003;53000;45.182;5.736;2023-07-13T08:36:53;0.00;0.00;0.00
66195;PMS7003;53000;45.182;5.736;2023-07-13T08:39:18;0.00;0.00;0.00
66195;PMS7003;53000;45.182;5.736;2023-07-13T08:41:45;1.00;0.00;0.00
66195;PMS7003;53000;45.182;5.736;2023-07-13T08:44:30;0.00;0.00;0.00
66195;PMS7003;53000;45.182;5.736;2023-07-13T08:47:01;0.00;0.00;0.00
66195;PMS7003;53000;45.182;5.736;2023-07-13T08:49:27;0.00;0.00;0.00
66195;PMS7003;53000;45.182;5.736;2023-07-13T08:51:54;0.00;0.00;0.00
66195;PMS7003;53000;45.182;5.736;2023-07-13T08:54:30;0.00;0.00;0.00
66195;PMS7003;53000;45.182;5.736;2023-07-13T08:57:00;0.25;0.25;0.25
66195;PMS7003;53000;45.182;5.736;2023-07-13T08:59:34;0.75;0.75;0.00
66195;PMS7003;53000;45.182;5.736;2023-07-13T09:10:46;1.00;1.00;1.00
66195;PMS7003;53000;45.182;5.736;2023-07-13T09:13:27;0.00;0.00;0.00
66195;PMS7003;53000;45.182;5.736;2023-07-13T09:16:00;0.00;0.00;0.00
66195;PMS7003;53000;45.182;5.736;2023-07-13T09:18:32;0.00;0.00;0.00
66195;PMS7003;53000;45.182;5.736;2023-07-13T09:21:35;1.25;0.75;0.00
66195;PMS7003;53000;45.182;5.736;2023-07-13T09:27:15;0.50;0.00;0.00
66195;PMS7003;53000;45.182;5.736;2023-07-13T09:29:47;0.00;0.00;0.00
66195;PMS7003;53000;45.182;5.736;2023-07-13T09:32:19;0.00;0.00;0.00
66195;PMS7003;53000;45.182;5.736;2023-07-13T09:34:52;0.00;0.00;0.00
66195;PMS7003;53000;45.182;5.736;2023-07-13T09:37:19;2.00;1.00;0.25
66195;PMS7003;53000;45.182;5.736;2023-07-13T09:39:47;0.50;0.00;0.00
66195;PMS7003;53000;45.182;5.736;2023-07-13T09:42:17;3.50;1.00;1.00
66195;PMS7003;53000;45.182;5.736;2023-07-13T09:47:23;0.25;0.25;0.00
66195;PMS7003;53000;45.182;5.736;2023-07-13T09:49:56;1.50;1.00;1.00
66195;PMS7003;53000;45.182;5.736;2023-07-13T09:52:27;1.00;1.00;1.00
66195;PMS7003;53000;45.182;5.736;2023-07-13T09:55:03;0.25;0.25;0.25
66195;PMS7003;53000;45.182;5.736;2023-07-13T09:57:29;1.25;1.25;0.75
66195;PMS7003;53000;45.182;5.736;2023-07-13T09:59:55;1.00;0.00;0.00
66195;PMS7003;53000;45.182;5.736;2023-07-13T10:05:01;2.00;0.00;0.00
66195;PMS7003;53000;45.182;5.736;2023-07-13T10:07:29;1.00;1.00;0.25
66195;PMS7003;53000;45.182;5.736;2023-07-13T10:09:58;0.50;0.25;0.00
66195;PMS7003;53000;45.182;5.736;2023-07-13T10:12:28;0.50;0.50;0.00
66195;PMS7003;53000;45.182;5.736;2023-07-13T10:14:56;1.00;1.00;1.00
66195;PMS7003;53000;45.182;5.736;2023-07-13T10:17:26;0.50;0.50;0.25
66195;PMS7003;53000;45.182;5.736;2023-07-13T10:19:55;1.00;1.00;1.00
66195;PMS7003;53000;45.182;5.736;2023-07-13T10:22:28;1.00;1.00;1.00
66195;PMS7003;53000;45.182;5.736;2023-07-13T10:25:03;0.25;0.25;0.25
66195;PMS7003;53000;45.182;5.736;2023-07-13T10:27:39;1.00;1.00;1.00
66195;PMS7003;53000;45.182;5.736;2023-07-13T10:32:45;2.00;1.00;1.00
66195;PMS7003;53000;45.182;5.736;2023-07-13T10:35:12;1.00;1.00;0.50
66195;PMS7003;53000;45.182;5.736;2023-07-13T10:37:45;1.00;1.00;0.25
66195;PMS7003;53000;45.182;5.736;2023-07-13T10:40:18;1.25;1.25;1.00
66195;PMS7003;53000;45.182;5.736;2023-07-13T10:42:49;1.75;1.00;1.00
66195;PMS7003;53000;45.182;5.736;2023-07-13T10:45:18;2.00;1.00;1.00
66195;PMS7003;53000;45.182;5.736;2023-07-13T10:47:46;0.75;0.75;0.25
66195;PMS7003;53000;45.182;5.736;2023-07-13T10:50:20;1.25;1.25;1.00
66195;PMS7003;53000;45.182;5.736;2023-07-13T10:52:50;1.50;1.00;0.00
66195;PMS7003;53000;45.182;5.736;2023-07-13T10:58:12;0.50;0.50;0.00
66195;PMS7003;53000;45.182;5.736;2023-07-13T11:00:46;1.50;1.50;1.00
66195;PMS7003;53000;45.182;5.736;2023-07-13T11:03:23;1.00;1.00;1.00
66195;PMS7003;53000;45.182;5.736;2023-07-13T11:06:04;0.25;0.25;0.00
66195;PMS7003;53000;45.182;5.736;2023-07-13T11:08:34;2.75;1.25;1.00
66195;PMS7003;53000;45.182;5.736;2023-07-13T11:11:03;3.00;1.00;1.00
66195;PMS7003;53000;45.182;5.736;2023-07-13T11:13:37;0.75;0.75;0.00
66195;PMS7003;53000;45.182;5.736;2023-07-13T11:18:51;1.00;1.00;1.00
66195;PMS7003;53000;45.182;5.736;2023-07-13T11:21:21;0.50;0.50;0.00
66195;PMS7003;53000;45.182;5.736;2023-07-13T11:23:52;0.50;0.00;0.00
66195;PMS7003;53000;45.182;5.736;2023-07-13T11:26:38;1.00;1.00;1.00
66195;PMS7003;53000;45.182;5.736;2023-07-13T11:32:03;0.75;0.75;0.75
66195;PMS7003;53000;45.182;5.736;2023-07-13T11:34:47;1.75;0.75;0.00
66195;PMS7003;53000;45.182;5.736;2023-07-13T11:37:13;0.00;0.00;0.00
66195;PMS7003;53000;45.182;5.736;2023-07-13T11:39:43;1.00;1.00;1.00
66195;PMS7003;53000;45.182;5.736;2023-07-13T11:42:15;1.25;1.25;1.00
66195;PMS7003;53000;45.182;5.736;2023-07-13T11:44:51;0.25;0.25;0.00
66195;PMS7003;53000;45.182;5.736;2023-07-13T11:47:20;2.00;2.00;1.00
66195;PMS7003;53000;45.182;5.736;2023-07-13T11:49:51;0.75;0.75;0.25
66195;PMS7003;53000;45.182;5.736;2023-07-13T11:52:26;0.75;0.75;0.50
66195;PMS7003;53000;45.182;5.736;2023-07-13T11:54:59;1.75;1.00;1.00
66195;PMS7003;53000;45.182;5.736;2023-07-13T11:57:30;1.00;1.00;1.00
66195;PMS7003;53000;45.182;5.736;2023-07-13T12:00:09;1.00;1.00;1.00
66195;PMS7003;53000;45.182;5.736;2023-07-13T12:02:40;1.00;1.00;1.00
66195;PMS7003;53000;45.182;5.736;2023-07-13T12:05:15;1.00;1.00;0.50
66195;PMS7003;53000;45.182;5.736;2023-07-13T12:07:46;1.00;1.00;0.25
66195;PMS7003;53000;45.182;5.736;2023-07-13T12:12:37;4.00;1.00;0.25
66195;PMS7003;53000;45.182;5.736;2023-07-13T12:15:08;1.25;0.75;0.50
66195;PMS7003;53000;45.182;5.736;2023-07-13T12:17:36;1.00;1.00;0.75
66195;PMS7003;53000;45.182;5.736;2023-07-13T12:20:03;0.00;0.00;0.00
66195;PMS7003;53000;45.182;5.736;2023-07-13T12:22:41;0.75;0.75;0.75
66195;PMS7003;53000;45.182;5.736;2023-07-13T12:25:11;2.25;2.25;1.25
66195;PMS7003;53000;45.182;5.736;2023-07-13T12:27:37;1.00;1.00;0.50
66195;PMS7003;53000;45.182;5.736;2023-07-13T12:30:04;1.25;0.00;0.00
66195;PMS7003;53000;45.182;5.736;2023-07-13T12:32:55;1.00;0.00;0.00
66195;PMS7003;53000;45.182;5.736;2023-07-13T12:35:24;3.00;1.00;1.00
66195;PMS7003;53000;45.182;5.736;2023-07-13T12:37:54;3.00;2.00;1.50
66195;PMS7003;53000;45.182;5.736;2023-07-13T12:40:26;2.00;1.00;0.50
66195;PMS7003;53000;45.182;5.736;2023-07-13T12:43:02;1.25;1.25;1.00
66195;PMS7003;53000;45.182;5.736;2023-07-13T12:45:31;1.75;1.00;0.75
66195;PMS7003;53000;45.182;5.736;2023-07-13T12:48:18;2.75;1.00;1.00
66195;PMS7003;53000;45.182;5.736;2023-07-13T12:50:46;1.50;1.50;1.25
66195;PMS7003;53000;45.182;5.736;2023-07-13T12:53:14;1.00;1.00;0.75
66195;PMS7003;53000;45.182;5.736;2023-07-13T12:55:41;2.75;1.00;0.00
66195;PMS7003;53000;45.182;5.736;2023-07-13T12:58:09;0.75;0.75;0.50
66195;PMS7003;53000;45.182;5.736;2023-07-13T13:00:47;1.00;1.00;0.75
66195;PMS7003;53000;45.182;5.736;2023-07-13T13:06:17;1.25;1.25;1.25
66195;PMS7003;53000;45.182;5.736;2023-07-13T13:08:52;1.25;1.00;0.00
66195;PMS7003;53000;45.182;5.736;2023-07-13T13:11:20;0.50;0.50;0.50
66195;PMS7003;53000;45.182;5.736;2023-07-13T13:13:48;0.50;0.50;0.50
66195;PMS7003;53000;45.182;5.736;2023-07-13T13:16:21;2.00;2.00;1.00
66195;PMS7003;53000;45.182;5.736;2023-07-13T13:18:47;1.00;1.00;0.75
66195;PMS7003;53000;45.182;5.736;2023-07-13T13:21:13;2.00;1.00;1.00
66195;PMS7003;53000;45.182;5.736;2023-07-13T13:23:38;1.00;0.00;0.00
66195;PMS7003;53000;45.182;5.736;2023-07-13T13:26:07;1.00;0.25;0.00
66195;PMS7003;53000;45.182;5.736;2023-07-13T13:28:35;1.00;1.00;0.00
66195;PMS7003;53000;45.182;5.736;2023-07-13T13:31:00;1.00;1.00;0.25
66195;PMS7003;53000;45.182;5.736;2023-07-13T13:33:25;0.00;0.00;0.00
66195;PMS7003;53000;45.182;5.736;2023-07-13T13:35:51;0.00;0.00;0.00
66195;PMS7003;53000;45.182;5.736;2023-07-13T13:38:17;0.75;0.75;0.00
66195;PMS7003;53000;45.182;5.736;2023-07-13T13:40:48;1.00;0.00;0.00
66195;PMS7003;53000;45.182;5.736;2023-07-13T13:43:17;1.00;1.00;1.00
66195;PMS7003;53000;45.182;5.736;2023-07-13T13:45:51;1.00;1.00;0.75
66195;PMS7003;53000;45.182;5.736;2023-07-13T13:48:29;1.50;0.50;0.25
66195;PMS7003;53000;45.182;5.736;2023-07-13T13:50:57;1.00;1.00;1.00
66195;PMS7003;53000;45.182;5.736;2023-07-13T13:53:24;1.00;1.00;1.00
66195;PMS7003;53000;45.182;5.736;2023-07-13T13:55:50;2.25;0.25;0.25
66195;PMS7003;53000;45.182;5.736;2023-07-13T13:58:17;1.00;1.00;1.00
66195;PMS7003;53000;45.182;5.736;2023-07-13T14:00:43;1.00;1.00;1.00
66195;PMS7003;53000;45.182;5.736;2023-07-13T14:03:18;0.00;0.00;0.00
66195;PMS7003;53000;45.182;5.736;2023-07-13T14:05:44;1.25;0.25;0.25
66195;PMS7003;53000;45.182;5.736;2023-07-13T14:08:14;1.00;0.00;0.00
66195;PMS7003;53000;45.182;5.736;2023-07-13T14:10:41;0.50;0.25;0.00
66195;PMS7003;53000;45.182;5.736;2023-07-13T14:13:16;0.00;0.00;0.00
66195;PMS7003;53000;45.182;5.736;2023-07-13T14:15:44;1.00;1.00;0.75
66195;PMS7003;53000;45.182;5.736;2023-07-13T14:18:09;1.75;0.00;0.00
66195;PMS7003;53000;45.182;5.736;2023-07-13T14:20:36;0.00;0.00;0.00
66195;PMS7003;53000;45.182;5.736;2023-07-13T14:23:02;0.00;0.00;0.00
66195;PMS7003;53000;45.182;5.736;2023-07-13T14:25:27;1.25;0.75;0.75
66195;PMS7003;53000;45.182;5.736;2023-07-13T14:27:56;0.00;0.00;0.00
66195;PMS7003;53000;45.182;5.736;2023-07-13T14:30:32;3.00;1.00;0.25
66195;PMS7003;53000;45.182;5.736;2023-07-13T14:32:58;1.00;1.00;1.00
66195;PMS7003;53000;45.182;5.736;2023-07-13T14:35:23;2.00;1.00;0.75
66195;PMS7003;53000;45.182;5.736;2023-07-13T14:37:48;0.75;0.75;0.25
66195;PMS7003;53000;45.182;5.736;2023-07-13T14:40:15;0.00;0.00;0.00
66195;PMS7003;53000;45.182;5.736;2023-07-13T14:42:41;0.50;0.50;0.50
66195;PMS7003;53000;45.182;5.736;2023-07-13T14:45:14;0.00;0.00;0.00
66195;PMS7003;53000;45.182;5.736;2023-07-13T14:47:41;1.00;0.25;0.00
66195;PMS7003;53000;45.182;5.736;2023-07-13T14:50:51;0.25;0.00;0.00
66195;PMS7003;53000;45.182;5.736;2023-07-13T14:52:57;1.00;1.00;1.00
66195;PMS7003;53000;45.182;5.736;2023-07-13T14:55:23;0.75;0.75;0.25
66195;PMS7003;53000;45.182;5.736;2023-07-13T14:57:51;1.00;0.75;0.75
66195;PMS7003;53000;45.182;5.736;2023-07-13T15:00:18;0.00;0.00;0.00